sensor_id;sensor_type;location;lat;lon;timestamp;pressure;altitude;pressure_sealevel;temperature;humidity
10079;BME280;5078;42.544;22.966;2023-02-28T00:01:27;94311.47;;;6.20;100.00
10079;BME280;5078;42.544;22.966;2023-02-28T00:03:54;94307.44;;;6.45;100.00
10079;BME280;5078;42.544;22.966;2023-02-28T00:06:21;94316.06;;;6.37;100.00
10079;BME280;5078;42.544;22.966;2023-02-28T00:08:49;94313.00;;;6.52;100.00
10079;BME280;5078;42.544;22.966;2023-02-28T00:11:17;94315.75;;;6.40;100.00
10079;BME280;5078;42.544;22.966;2023-02-28T00:13:45;94312.84;;;6.24;100.00
10079;BME280;5078;42.544;22.966;2023-02-28T00:16:14;94327.81;;;6.23;100.00
10079;BME280;5078;42.544;22.966;2023-02-28T00:18:41;94319.66;;;6.07;100.00
10079;BME280;5078;42.544;22.966;2023-02-28T00:21:09;94288.69;;;5.90;100.00
10079;BME280;5078;42.544;22.966;2023-02-28T00:23:36;94317.00;;;6.07;100.00
10079;BME280;5078;42.544;22.966;2023-02-28T00:26:03;94316.75;;;5.60;100.00
10079;BME280;5078;42.544;22.966;2023-02-28T00:28:31;94325.59;;;5.49;100.00
10079;BME280;5078;42.544;22.966;2023-02-28T00:30:58;94316.59;;;5.52;100.00
10079;BME280;5078;42.544;22.966;2023-02-28T00:33:26;94321.47;;;5.66;100.00
10079;BME280;5078;42.544;22.966;2023-02-28T00:36:01;94319.09;;;5.63;100.00
10079;BME280;5078;42.544;22.966;2023-02-28T00:38:28;94312.81;;;5.35;100.00
10079;BME280;5078;42.544;22.966;2023-02-28T00:40:55;94311.97;;;5.44;100.00
10079;BME280;5078;42.544;22.966;2023-02-28T00:43:22;94320.59;;;5.56;100.00
10079;BME280;5078;42.544;22.966;2023-02-28T00:45:50;94319.94;;;5.63;100.00
10079;BME280;5078;42.544;22.966;2023-02-28T00:48:16;94315.41;;;5.75;100.00
10079;BME280;5078;42.544;22.966;2023-02-28T00:50:43;94317.63;;;5.80;100.00
10079;BME280;5078;42.544;22.966;2023-02-28T00:53:10;94322.44;;;5.65;100.00
10079;BME280;5078;42.544;22.966;2023-02-28T00:55:37;94320.09;;;5.81;100.00
10079;BME280;5078;42.544;22.966;2023-02-28T00:58:03;94318.72;;;5.77;100.00
10079;BME280;5078;42.544;22.966;2023-02-28T01:00:30;94318.59;;;5.69;100.00
10079;BME280;5078;42.544;22.966;2023-02-28T01:02:58;94323.16;;;5.77;100.00
10079;BME280;5078;42.544;22.966;2023-02-28T01:05:25;94313.91;;;5.82;100.00
10079;BME280;5078;42.544;22.966;2023-02-28T01:07:52;94312.47;;;5.69;100.00
10079;BME280;5078;42.544;22.966;2023-02-28T01:10:19;94313.47;;;5.77;100.00
10079;BME280;5078;42.544;22.966;2023-02-28T01:12:46;94305.41;;;5.59;100.00
10079;BME280;5078;42.544;22.966;2023-02-28T01:15:12;94310.41;;;5.72;100.00
10079;BME280;5078;42.544;22.966;2023-02-28T01:17:39;94309.00;;;5.68;100.00
10079;BME280;5078;42.544;22.966;2023-02-28T01:20:08;94305.16;;;5.72;100.00
10079;BME280;5078;42.544;22.966;2023-02-28T01:22:36;94299.88;;;5.62;100.00
10079;BME280;5078;42.544;22.966;2023-02-28T01:25:03;94295.34;;;5.24;100.00
10079;BME280;5078;42.544;22.966;2023-02-28T01:27:30;94294.00;;;5.09;100.00
10079;BME280;5078;42.544;22.966;2023-02-28T01:29:56;94295.84;;;5.18;100.00
10079;BME280;5078;42.544;22.966;2023-02-28T01:32:23;94309.34;;;5.34;100.00
10079;BME280;5078;42.544;22.966;2023-02-28T01:34:50;94316.97;;;5.07;100.00
10079;BME280;5078;42.544;22.966;2023-02-28T01:37:18;94316.50;;;5.02;100.00
10079;BME280;5078;42.544;22.966;2023-02-28T01:39:44;94328.69;;;5.03;100.00
10079;BME280;5078;42.544;22.966;2023-02-28T01:42:12;94320.03;;;5.12;100.00
10079;BME280;5078;42.544;22.966;2023-02-28T01:44:58;94312.22;;;5.31;100.00
10079;BME280;5078;42.544;22.966;2023-02-28T01:47:29;94306.84;;;5.02;100.00
10079;BME280;5078;42.544;22.966;2023-02-28T01:49:57;94320.22;;;5.20;100.00
10079;BME280;5078;42.544;22.966;2023-02-28T01:52:26;94322.19;;;5.28;100.00
10079;BME280;5078;42.544;22.966;2023-02-28T01:54:55;94325.38;;;5.31;100.00
10079;BME280;5078;42.544;22.966;2023-02-28T01:57:25;94324.88;;;5.07;100.00
10079;BME280;5078;42.544;22.966;2023-02-28T01:59:58;94318.19;;;4.82;100.00
10079;BME280;5078;42.544;22.966;2023-02-28T02:02:26;94321.81;;;4.81;100.00
10079;BME280;5078;42.544;22.966;2023-02-28T02:04:55;94324.38;;;4.92;100.00
10079;BME280;5078;42.544;22.966;2023-02-28T02:07:26;94304.50;;;4.78;100.00
10079;BME280;5078;42.544;22.966;2023-02-28T02:10:01;94327.28;;;4.98;100.00
10079;BME280;5078;42.544;22.966;2023-02-28T02:12:39;94334.88;;;4.71;100.00
10079;BME280;5078;42.544;22.966;2023-02-28T02:15:12;94319.19;;;4.60;100.00
10079;BME280;5078;42.544;22.966;2023-02-28T02:17:45;94321.16;;;4.46;100.00
10079;BME280;5078;42.544;22.966;2023-02-28T02:20:46;94337.47;;;4.29;100.00
10079;BME280;5078;42.544;22.966;2023-02-28T02:29:47;94341.75;;;4.62;100.00
10079;BME280;5078;42.544;22.966;2023-02-28T02:32:52;94349.03;;;4.59;100.00
10079;BME280;5078;42.544;22.966;2023-02-28T02:35:27;94356.06;;;4.58;100.00
10079;BME280;5078;42.544;22.966;2023-02-28T02:38:00;94356.25;;;4.45;100.00
10079;BME280;5078;42.544;22.966;2023-02-28T02:40:33;94342.94;;;4.37;100.00
10079;BME280;5078;42.544;22.966;2023-02-28T02:43:06;94340.09;;;4.29;100.00
10079;BME280;5078;42.544;22.966;2023-02-28T02:45:37;94344.59;;;4.38;100.00
10079;BME280;5078;42.544;22.966;2023-02-28T02:48:09;94343.69;;;4.28;100.00
10079;BME280;5078;42.544;22.966;2023-02-28T02:50:41;94341.31;;;4.25;100.00
10079;BME280;5078;42.544;22.966;2023-02-28T02:53:11;94340.88;;;4.41;100.00
10079;BME280;5078;42.544;22.966;2023-02-28T02:55:41;94346.66;;;4.56;100.00
10079;BME280;5078;42.544;22.966;2023-02-28T02:58:13;94357.69;;;4.49;100.00
10079;BME280;5078;42.544;22.966;2023-02-28T03:00:45;94363.41;;;4.54;100.00
10079;BME280;5078;42.544;22.966;2023-02-28T03:03:13;94354.28;;;4.59;100.00
10079;BME280;5078;42.544;22.966;2023-02-28T03:05:46;94346.41;;;4.59;100.00
10079;BME280;5078;42.544;22.966;2023-02-28T03:08:13;94349.59;;;4.41;100.00
10079;BME280;5078;42.544;22.966;2023-02-28T03:10:42;94354.09;;;4.50;100.00
10079;BME280;5078;42.544;22.966;2023-02-28T03:16:28;94361.44;;;4.36;100.00
10079;BME280;5078;42.544;22.966;2023-02-28T03:19:03;94364.19;;;4.34;100.00
10079;BME280;5078;42.544;22.966;2023-02-28T03:21:36;94369.31;;;4.57;100.00
10079;BME280;5078;42.544;22.966;2023-02-28T03:24:07;94372.91;;;4.56;100.00
10079;BME280;5078;42.544;22.966;2023-02-28T03:26:39;94371.69;;;4.39;100.00
10079;BME280;5078;42.544;22.966;2023-02-28T03:29:13;94382.41;;;4.47;100.00
10079;BME280;5078;42.544;22.966;2023-02-28T03:31:45;94384.50;;;4.32;100.00
10079;BME280;5078;42.544;22.966;2023-02-28T03:34:19;94381.44;;;4.48;100.00
10079;BME280;5078;42.544;22.966;2023-02-28T03:36:53;94393.13;;;4.44;100.00
10079;BME280;5078;42.544;22.966;2023-02-28T03:39:25;94394.22;;;4.41;100.00
10079;BME280;5078;42.544;22.966;2023-02-28T03:41:57;94396.94;;;4.51;100.00
10079;BME280;5078;42.544;22.966;2023-02-28T03:44:30;94397.28;;;4.58;100.00
10079;BME280;5078;42.544;22.966;2023-02-28T03:47:01;94395.00;;;4.21;100.00
10079;BME280;5078;42.544;22.966;2023-02-28T03:49:32;94392.66;;;4.18;100.00
10079;BME280;5078;42.544;22.966;2023-02-28T03:52:05;94396.72;;;4.10;100.00
10079;BME280;5078;42.544;22.966;2023-02-28T03:54:36;94396.50;;;4.02;100.00
10079;BME280;5078;42.544;22.966;2023-02-28T03:57:11;94396.72;;;3.99;100.00
10079;BME280;5078;42.544;22.966;2023-02-28T03:59:43;94403.25;;;4.16;100.00
10079;BME280;5078;42.544;22.966;2023-02-28T04:02:11;94396.38;;;4.04;100.00
10079;BME280;5078;42.544;22.966;2023-02-28T04:04:38;94396.72;;;3.99;100.00
10079;BME280;5078;42.544;22.966;2023-02-28T04:07:15;94393.34;;;4.20;100.00
10079;BME280;5078;42.544;22.966;2023-02-28T04:09:42;94398.19;;;4.36;100.00
10079;BME280;5078;42.544;22.966;2023-02-28T04:12:09;94394.94;;;4.43;100.00
10079;BME280;5078;42.544;22.966;2023-02-28T04:14:36;94397.44;;;4.45;100.00
10079;BME280;5078;42.544;22.966;2023-02-28T04:17:03;94401.28;;;4.41;100.00
10079;BME280;5078;42.544;22.966;2023-02-28T04:19:29;94392.72;;;4.60;100.00
10079;BME280;5078;42.544;22.966;2023-02-28T04:21:56;94400.91;;;4.66;100.00
10079;BME280;5078;42.544;22.966;2023-02-28T04:24:25;94383.16;;;4.59;100.00
10079;BME280;5078;42.544;22.966;2023-02-28T04:26:54;94397.00;;;4.61;100.00
10079;BME280;5078;42.544;22.966;2023-02-28T04:29:23;94396.25;;;4.70;100.00
10079;BME280;5078;42.544;22.966;2023-02-28T04:31:50;94403.72;;;4.53;100.00
10079;BME280;5078;42.544;22.966;2023-02-28T04:34:18;94402.78;;;4.54;100.00
10079;BME280;5078;42.544;22.966;2023-02-28T04:36:46;94401.53;;;4.59;100.00
10079;BME280;5078;42.544;22.966;2023-02-28T04:39:14;94407.94;;;4.45;100.00
10079;BME280;5078;42.544;22.966;2023-02-28T04:41:42;94401.78;;;4.67;100.00
10079;BME280;5078;42.544;22.966;2023-02-28T04:44:09;94413.56;;;4.40;100.00
10079;BME280;5078;42.544;22.966;2023-02-28T04:46:36;94410.31;;;4.48;100.00
10079;BME280;5078;42.544;22.966;2023-02-28T04:49:03;94419.28;;;4.45;100.00
10079;BME280;5078;42.544;22.966;2023-02-28T04:51:29;94421.53;;;4.50;100.00
10079;BME280;5078;42.544;22.966;2023-02-28T04:53:56;94424.31;;;4.69;100.00
10079;BME280;5078;42.544;22.966;2023-02-28T04:56:23;94423.25;;;4.72;100.00
10079;BME280;5078;42.544;22.966;2023-02-28T04:58:51;94421.63;;;4.81;100.00
10079;BME280;5078;42.544;22.966;2023-02-28T05:01:21;94427.78;;;4.70;100.00
10079;BME280;5078;42.544;22.966;2023-02-28T05:03:49;94421.91;;;4.45;100.00
10079;BME280;5078;42.544;22.966;2023-02-28T05:06:17;94429.06;;;4.43;100.00
10079;BME280;5078;42.544;22.966;2023-02-28T05:08:43;94425.72;;;4.41;100.00
10079;BME280;5078;42.544;22.966;2023-02-28T05:11:16;94429.44;;;4.71;100.00
10079;BME280;5078;42.544;22.966;2023-02-28T05:13:43;94437.34;;;4.92;100.00
10079;BME280;5078;42.544;22.966;2023-02-28T05:16:11;94432.06;;;4.71;100.00
10079;BME280;5078;42.544;22.966;2023-02-28T05:18:38;94433.69;;;4.83;100.00
10079;BME280;5078;42.544;22.966;2023-02-28T05:21:06;94421.50;;;4.82;100.00
10079;BME280;5078;42.544;22.966;2023-02-28T05:23:32;94425.53;;;4.86;100.00
10079;BME280;5078;42.544;22.966;2023-02-28T05:25:59;94425.22;;;5.01;100.00
10079;BME280;5078;42.544;22.966;2023-02-28T05:28:26;94416.19;;;5.14;100.00
10079;BME280;5078;42.544;22.966;2023-02-28T05:30:53;94432.91;;;4.92;100.00
10079;BME280;5078;42.544;22.966;2023-02-28T05:33:21;94433.06;;;5.12;100.00
10079;BME280;5078;42.544;22.966;2023-02-28T05:35:47;94430.38;;;5.02;100.00
10079;BME280;5078;42.544;22.966;2023-02-28T05:38:14;94435.97;;;4.76;100.00
10079;BME280;5078;42.544;22.966;2023-02-28T05:40:41;94438.66;;;4.86;100.00
10079;BME280;5078;42.544;22.966;2023-02-28T05:43:10;94452.84;;;4.95;100.00
10079;BME280;5078;42.544;22.966;2023-02-28T05:45:37;94444.03;;;4.64;100.00
10079;BME280;5078;42.544;22.966;2023-02-28T05:48:04;94457.28;;;4.94;100.00
10079;BME280;5078;42.544;22.966;2023-02-28T05:50:33;94453.75;;;4.84;100.00
10079;BME280;5078;42.544;22.966;2023-02-28T05:52:59;94454.50;;;4.31;100.00
10079;BME280;5078;42.544;22.966;2023-02-28T05:55:26;94464.44;;;4.28;100.00
10079;BME280;5078;42.544;22.966;2023-02-28T05:57:55;94466.84;;;4.20;100.00
10079;BME280;5078;42.544;22.966;2023-02-28T06:00:22;94462.28;;;4.22;100.00
10079;BME280;5078;42.544;22.966;2023-02-28T06:02:49;94441.25;;;3.89;100.00
10079;BME280;5078;42.544;22.966;2023-02-28T06:05:17;94462.78;;;4.27;100.00
10079;BME280;5078;42.544;22.966;2023-02-28T06:07:45;94466.69;;;4.32;100.00
10079;BME280;5078;42.544;22.966;2023-02-28T06:10:13;94470.97;;;4.45;100.00
10079;BME280;5078;42.544;22.966;2023-02-28T06:12:40;94468.69;;;4.40;100.00
10079;BME280;5078;42.544;22.966;2023-02-28T06:15:11;94473.28;;;4.59;100.00
10079;BME280;5078;42.544;22.966;2023-02-28T06:17:39;94478.88;;;4.66;100.00
10079;BME280;5078;42.544;22.966;2023-02-28T06:20:07;94482.16;;;4.79;100.00
10079;BME280;5078;42.544;22.966;2023-02-28T06:23:12;94489.22;;;4.79;100.00
10079;BME280;5078;42.544;22.966;2023-02-28T06:25:39;94490.31;;;4.76;100.00
10079;BME280;5078;42.544;22.966;2023-02-28T06:28:05;94485.97;;;4.86;100.00
10079;BME280;5078;42.544;22.966;2023-02-28T06:30:32;94488.47;;;4.88;100.00
10079;BME280;5078;42.544;22.966;2023-02-28T06:32:59;94484.88;;;4.89;100.00
10079;BME280;5078;42.544;22.966;2023-02-28T06:35:26;94493.94;;;4.96;100.00
10079;BME280;5078;42.544;22.966;2023-02-28T06:37:52;94489.09;;;4.80;100.00
10079;BME280;5078;42.544;22.966;2023-02-28T06:40:20;94491.47;;;4.83;100.00
10079;BME280;5078;42.544;22.966;2023-02-28T06:42:47;94495.47;;;4.66;100.00
10079;BME280;5078;42.544;22.966;2023-02-28T06:45:14;94491.22;;;4.86;100.00
10079;BME280;5078;42.544;22.966;2023-02-28T06:47:41;94490.53;;;4.84;100.00
10079;BME280;5078;42.544;22.966;2023-02-28T06:50:10;94496.47;;;4.86;100.00
10079;BME280;5078;42.544;22.966;2023-02-28T06:52:37;94501.72;;;4.86;100.00
10079;BME280;5078;42.544;22.966;2023-02-28T06:55:05;94489.84;;;5.03;100.00
10079;BME280;5078;42.544;22.966;2023-02-28T06:57:35;94502.16;;;5.03;100.00
10079;BME280;5078;42.544;22.966;2023-02-28T07:00:05;94484.53;;;5.14;100.00
10079;BME280;5078;42.544;22.966;2023-02-28T07:02:33;94460.47;;;5.19;100.00
10079;BME280;5078;42.544;22.966;2023-02-28T07:05:00;94492.88;;;5.19;100.00
10079;BME280;5078;42.544;22.966;2023-02-28T07:07:26;94507.44;;;5.45;100.00
10079;BME280;5078;42.544;22.966;2023-02-28T07:09:53;94502.97;;;5.87;100.00
10079;BME280;5078;42.544;22.966;2023-02-28T07:12:20;94496.16;;;6.15;100.00
10079;BME280;5078;42.544;22.966;2023-02-28T07:14:48;94497.00;;;6.16;100.00
10079;BME280;5078;42.544;22.966;2023-02-28T07:17:15;94489.72;;;6.29;100.00
10079;BME280;5078;42.544;22.966;2023-02-28T07:19:41;94480.44;;;6.35;100.00
10079;BME280;5078;42.544;22.966;2023-02-28T07:22:08;94494.03;;;6.40;100.00
10079;BME280;5078;42.544;22.966;2023-02-28T07:24:35;94483.59;;;6.29;100.00
10079;BME280;5078;42.544;22.966;2023-02-28T07:27:01;94484.91;;;6.54;100.00
10079;BME280;5078;42.544;22.966;2023-02-28T07:29:28;94466.34;;;6.65;100.00
10079;BME280;5078;42.544;22.966;2023-02-28T07:31:57;94486.63;;;6.74;100.00
10079;BME280;5078;42.544;22.966;2023-02-28T07:34:23;94486.19;;;6.79;100.00
10079;BME280;5078;42.544;22.966;2023-02-28T07:36:53;94488.13;;;6.57;100.00
10079;BME280;5078;42.544;22.966;2023-02-28T07:39:20;94481.34;;;6.74;100.00
10079;BME280;5078;42.544;22.966;2023-02-28T07:41:47;94478.00;;;7.01;100.00
10079;BME280;5078;42.544;22.966;2023-02-28T07:44:13;94478.56;;;7.24;100.00
10079;BME280;5078;42.544;22.966;2023-02-28T07:46:40;94463.78;;;7.51;100.00
10079;BME280;5078;42.544;22.966;2023-02-28T07:49:08;94472.25;;;8.11;100.00
10079;BME280;5078;42.544;22.966;2023-02-28T07:51:35;94470.94;;;8.53;100.00
10079;BME280;5078;42.544;22.966;2023-02-28T07:54:02;94475.81;;;8.75;100.00
10079;BME280;5078;42.544;22.966;2023-02-28T07:56:29;94477.75;;;8.73;100.00
10079;BME280;5078;42.544;22.966;2023-02-28T07:58:55;94481.72;;;9.05;100.00
10079;BME280;5078;42.544;22.966;2023-02-28T08:01:22;94479.81;;;9.15;100.00
10079;BME280;5078;42.544;22.966;2023-02-28T08:03:49;94474.69;;;8.96;100.00
10079;BME280;5078;42.544;22.966;2023-02-28T08:06:19;94478.09;;;9.68;100.00
10079;BME280;5078;42.544;22.966;2023-02-28T08:08:46;94475.59;;;10.19;100.00
10079;BME280;5078;42.544;22.966;2023-02-28T08:11:13;94465.41;;;10.32;100.00
10079;BME280;5078;42.544;22.966;2023-02-28T08:13:40;94468.44;;;9.85;100.00
10079;BME280;5078;42.544;22.966;2023-02-28T08:16:07;94469.56;;;10.08;100.00
10079;BME280;5078;42.544;22.966;2023-02-28T08:18:34;94453.13;;;10.73;100.00
10079;BME280;5078;42.544;22.966;2023-02-28T08:21:05;94458.16;;;11.50;100.00
10079;BME280;5078;42.544;22.966;2023-02-28T08:23:34;94460.13;;;10.99;100.00
10079;BME280;5078;42.544;22.966;2023-02-28T08:26:00;94466.09;;;11.01;100.00
10079;BME280;5078;42.544;22.966;2023-02-28T08:28:27;94468.28;;;11.47;100.00
10079;BME280;5078;42.544;22.966;2023-02-28T08:30:54;94461.00;;;11.16;100.00
10079;BME280;5078;42.544;22.966;2023-02-28T08:33:21;94466.59;;;12.03;100.00
10079;BME280;5078;42.544;22.966;2023-02-28T08:35:48;94464.97;;;11.69;100.00
10079;BME280;5078;42.544;22.966;2023-02-28T08:38:15;94459.47;;;11.62;100.00
10079;BME280;5078;42.544;22.966;2023-02-28T08:40:43;94462.22;;;12.26;100.00
10079;BME280;5078;42.544;22.966;2023-02-28T08:43:09;94461.47;;;11.93;100.00
10079;BME280;5078;42.544;22.966;2023-02-28T08:45:36;94462.47;;;11.59;100.00
10079;BME280;5078;42.544;22.966;2023-02-28T08:48:03;94460.38;;;12.27;100.00
10079;BME280;5078;42.544;22.966;2023-02-28T08:50:30;94454.16;;;12.51;100.00
10079;BME280;5078;42.544;22.966;2023-02-28T08:52:57;94442.97;;;12.87;100.00
10079;BME280;5078;42.544;22.966;2023-02-28T08:55:25;94447.84;;;13.06;100.00
10079;BME280;5078;42.544;22.966;2023-02-28T08:57:53;94433.94;;;12.25;100.00
10079;BME280;5078;42.544;22.966;2023-02-28T09:00:21;94441.00;;;11.85;100.00
10079;BME280;5078;42.544;22.966;2023-02-28T09:02:50;94427.81;;;12.25;100.00
10079;BME280;5078;42.544;22.966;2023-02-28T09:05:18;94436.25;;;12.99;100.00
10079;BME280;5078;42.544;22.966;2023-02-28T09:07:48;94435.22;;;13.08;100.00
10079;BME280;5078;42.544;22.966;2023-02-28T09:11:10;94425.13;;;11.69;100.00
10079;BME280;5078;42.544;22.966;2023-02-28T09:17:30;94442.53;;;11.96;100.00
10079;BME280;5078;42.544;22.966;2023-02-28T09:19:57;94441.34;;;12.07;100.00
10079;BME280;5078;42.544;22.966;2023-02-28T09:22:24;94445.66;;;12.00;100.00
10079;BME280;5078;42.544;22.966;2023-02-28T09:25:04;94439.22;;;11.70;100.00
10079;BME280;5078;42.544;22.966;2023-02-28T09:27:30;94436.88;;;11.75;100.00
10079;BME280;5078;42.544;22.966;2023-02-28T09:29:57;94440.09;;;11.29;100.00
10079;BME280;5078;42.544;22.966;2023-02-28T09:32:24;94436.53;;;11.78;100.00
10079;BME280;5078;42.544;22.966;2023-02-28T09:34:55;94434.66;;;12.19;100.00
10079;BME280;5078;42.544;22.966;2023-02-28T09:37:22;94441.50;;;12.05;100.00
10079;BME280;5078;42.544;22.966;2023-02-28T09:39:48;94439.22;;;11.86;100.00
10079;BME280;5078;42.544;22.966;2023-02-28T09:42:21;94436.09;;;11.50;100.00
10079;BME280;5078;42.544;22.966;2023-02-28T09:44:50;94444.97;;;10.75;100.00
10079;BME280;5078;42.544;22.966;2023-02-28T09:47:25;94446.53;;;10.43;100.00
10079;BME280;5078;42.544;22.966;2023-02-28T09:49:56;94432.72;;;10.74;100.00
10079;BME280;5078;42.544;22.966;2023-02-28T09:52:28;94438.81;;;10.58;100.00
10079;BME280;5078;42.544;22.966;2023-02-28T09:54:55;94429.03;;;10.58;100.00
10079;BME280;5078;42.544;22.966;2023-02-28T09:57:31;94431.16;;;10.47;100.00
10079;BME280;5078;42.544;22.966;2023-02-28T10:00:06;94424.09;;;10.88;100.00
10079;BME280;5078;42.544;22.966;2023-02-28T10:02:49;94432.94;;;11.21;100.00
10079;BME280;5078;42.544;22.966;2023-02-28T10:05:22;94426.31;;;11.17;100.00
10079;BME280;5078;42.544;22.966;2023-02-28T10:08:01;94431.28;;;10.96;100.00
10079;BME280;5078;42.544;22.966;2023-02-28T10:10:34;94424.13;;;11.37;100.00
10079;BME280;5078;42.544;22.966;2023-02-28T10:13:06;94413.50;;;11.78;100.00
10079;BME280;5078;42.544;22.966;2023-02-28T10:15:37;94417.94;;;11.78;100.00
10079;BME280;5078;42.544;22.966;2023-02-28T10:18:08;94414.59;;;12.08;100.00
10079;BME280;5078;42.544;22.966;2023-02-28T10:20:39;94418.28;;;11.99;100.00
10079;BME280;5078;42.544;22.966;2023-02-28T10:23:12;94409.66;;;11.89;100.00
10079;BME280;5078;42.544;22.966;2023-02-28T10:25:40;94410.31;;;11.91;100.00
10079;BME280;5078;42.544;22.966;2023-02-28T10:28:14;94405.00;;;11.75;100.00
10079;BME280;5078;42.544;22.966;2023-02-28T10:30:46;94400.38;;;11.60;100.00
10079;BME280;5078;42.544;22.966;2023-02-28T10:33:19;94395.69;;;11.95;100.00
10079;BME280;5078;42.544;22.966;2023-02-28T10:35:49;94401.63;;;12.05;100.00
10079;BME280;5078;42.544;22.966;2023-02-28T10:38:19;94395.22;;;11.83;100.00
10079;BME280;5078;42.544;22.966;2023-02-28T10:40:46;94394.88;;;11.70;100.00
10079;BME280;5078;42.544;22.966;2023-02-28T10:43:23;94391.03;;;11.97;100.00
10079;BME280;5078;42.544;22.966;2023-02-28T10:45:56;94386.53;;;12.06;100.00
10079;BME280;5078;42.544;22.966;2023-02-28T10:48:32;94377.25;;;11.85;100.00
10079;BME280;5078;42.544;22.966;2023-02-28T10:51:01;94377.41;;;12.40;100.00
10079;BME280;5078;42.544;22.966;2023-02-28T10:53:32;94358.63;;;12.41;100.00
10079;BME280;5078;42.544;22.966;2023-02-28T10:56:02;94368.44;;;12.33;100.00
10079;BME280;5078;42.544;22.966;2023-02-28T10:58:31;94368.56;;;12.08;100.00
10079;BME280;5078;42.544;22.966;2023-02-28T11:01:14;94357.19;;;12.30;100.00
10079;BME280;5078;42.544;22.966;2023-02-28T11:03:41;94351.22;;;11.81;100.00
10079;BME280;5078;42.544;22.966;2023-02-28T11:06:15;94346.66;;;11.98;100.00
10079;BME280;5078;42.544;22.966;2023-02-28T11:08:47;94350.19;;;12.29;100.00
10079;BME280;5078;42.544;22.966;2023-02-28T11:11:15;94338.97;;;12.50;100.00
10079;BME280;5078;42.544;22.966;2023-02-28T11:13:44;94339.25;;;12.79;100.00
10079;BME280;5078;42.544;22.966;2023-02-28T11:16:13;94324.13;;;13.17;100.00
10079;BME280;5078;42.544;22.966;2023-02-28T11:18:43;94337.34;;;13.33;100.00
10079;BME280;5078;42.544;22.966;2023-02-28T11:21:17;94330.88;;;13.66;98.98
10079;BME280;5078;42.544;22.966;2023-02-28T11:23:44;94335.69;;;13.47;100.00
10079;BME280;5078;42.544;22.966;2023-02-28T11:26:11;94335.16;;;13.52;98.18
10079;BME280;5078;42.544;22.966;2023-02-28T11:28:39;94332.50;;;13.67;98.54
10079;BME280;5078;42.544;22.966;2023-02-28T11:31:18;94333.06;;;13.62;96.73
10079;BME280;5078;42.544;22.966;2023-02-28T11:33:49;94325.56;;;13.28;98.83
10079;BME280;5078;42.544;22.966;2023-02-28T11:36:19;94327.88;;;13.31;100.00
10079;BME280;5078;42.544;22.966;2023-02-28T11:38:50;94315.31;;;13.69;98.64
10079;BME280;5078;42.544;22.966;2023-02-28T11:41:43;94318.91;;;13.76;97.33
10079;BME280;5078;42.544;22.966;2023-02-28T11:44:24;94325.88;;;13.48;98.35
10079;BME280;5078;42.544;22.966;2023-02-28T11:46:56;94309.63;;;13.57;96.17
10079;BME280;5078;42.544;22.966;2023-02-28T11:49:35;94317.72;;;13.94;96.22
10079;BME280;5078;42.544;22.966;2023-02-28T11:52:19;94317.72;;;13.79;94.30
10079;BME280;5078;42.544;22.966;2023-02-28T11:55:09;94312.09;;;13.44;98.01
10079;BME280;5078;42.544;22.966;2023-02-28T12:00:40;94295.88;;;12.78;100.00
10079;BME280;5078;42.544;22.966;2023-02-28T12:03:20;94303.16;;;12.99;99.72
10079;BME280;5078;42.544;22.966;2023-02-28T12:05:56;94297.63;;;12.63;100.00
10079;BME280;5078;42.544;22.966;2023-02-28T12:08:43;94297.91;;;12.68;100.00
10079;BME280;5078;42.544;22.966;2023-02-28T12:11:17;94295.00;;;12.78;100.00
10079;BME280;5078;42.544;22.966;2023-02-28T12:13:48;94297.06;;;12.76;100.00
10079;BME280;5078;42.544;22.966;2023-02-28T12:16:29;94296.56;;;12.49;100.00
10079;BME280;5078;42.544;22.966;2023-02-28T12:19:07;94297.75;;;12.46;100.00
10079;BME280;5078;42.544;22.966;2023-02-28T12:21:48;94280.84;;;12.39;100.00
10079;BME280;5078;42.544;22.966;2023-02-28T12:24:47;94289.94;;;12.68;100.00
10079;BME280;5078;42.544;22.966;2023-02-28T12:27:19;94283.13;;;12.65;100.00
10079;BME280;5078;42.544;22.966;2023-02-28T12:29:52;94280.06;;;12.77;100.00
10079;BME280;5078;42.544;22.966;2023-02-28T12:32:25;94284.84;;;12.81;100.00
10079;BME280;5078;42.544;22.966;2023-02-28T12:34:56;94281.38;;;12.81;100.00
10079;BME280;5078;42.544;22.966;2023-02-28T12:37:29;94268.66;;;12.91;100.00
10079;BME280;5078;42.544;22.966;2023-02-28T12:40:03;94271.16;;;13.22;100.00
10079;BME280;5078;42.544;22.966;2023-02-28T12:42:36;94266.06;;;12.98;100.00
10079;BME280;5078;42.544;22.966;2023-02-28T12:45:17;94260.13;;;12.72;100.00
10079;BME280;5078;42.544;22.966;2023-02-28T12:47:48;94263.25;;;12.99;100.00
10079;BME280;5078;42.544;22.966;2023-02-28T12:50:16;94260.69;;;13.06;100.00
10079;BME280;5078;42.544;22.966;2023-02-28T12:52:51;94253.91;;;13.18;100.00
10079;BME280;5078;42.544;22.966;2023-02-28T12:55:25;94239.66;;;12.58;100.00
10079;BME280;5078;42.544;22.966;2023-02-28T12:58:01;94251.97;;;12.74;100.00
10079;BME280;5078;42.544;22.966;2023-02-28T13:00:35;94253.22;;;12.86;100.00
10079;BME280;5078;42.544;22.966;2023-02-28T13:03:33;94250.34;;;12.88;100.00
10079;BME280;5078;42.544;22.966;2023-02-28T13:06:28;94248.47;;;12.97;100.00
10079;BME280;5078;42.544;22.966;2023-02-28T13:09:10;94254.53;;;13.05;100.00
10079;BME280;5078;42.544;22.966;2023-02-28T13:11:44;94250.03;;;13.06;100.00
10079;BME280;5078;42.544;22.966;2023-02-28T13:14:24;94234.69;;;12.93;100.00
10079;BME280;5078;42.544;22.966;2023-02-28T13:16:58;94244.19;;;12.49;100.00
10079;BME280;5078;42.544;22.966;2023-02-28T13:19:27;94240.91;;;12.85;100.00
10079;BME280;5078;42.544;22.966;2023-02-28T13:21:56;94243.66;;;12.92;100.00
10079;BME280;5078;42.544;22.966;2023-02-28T13:24:48;94238.25;;;13.00;100.00
10079;BME280;5078;42.544;22.966;2023-02-28T13:27:33;94234.94;;;12.83;100.00
10079;BME280;5078;42.544;22.966;2023-02-28T13:30:01;94241.47;;;12.81;100.00
10079;BME280;5078;42.544;22.966;2023-02-28T13:32:34;94239.59;;;13.19;100.00